Time;durP1;ratioP1;P1;durP2;ratioP2;P2;SDS_P1;SDS_P2;PMS_P1;PMS_P2;Temp;Humidity;BMP_temperature;BMP_pressure;BME280_temperature;BME280_humidity;BME280_pressure;Samples;Min_cycle;Max_cycle;Signal;HPM_P1;HPM_P2
2023/03/21 00:19:47;;;;;;;46.07;26.60;;;8.40;99.90;;;;;;4659475;29;20338;-84
2023/03/21 00:50:18;;;;;;;49.87;26.73;;;8.30;99.90;;;;;;4672385;29;20258;-81
2023/03/21 01:35:24;;;;;;;44.80;24.37;;;8.20;99.90;;;;;;4722742;28;20491;-83
2023/03/21 02:05:49;;;;;;;41.77;23.93;;;8.00;99.90;;;;;;4733890;28;20585;-82
2023/03/21 02:31:41;;;;;;;44.73;23.37;;;7.80;99.90;;;;;;4656709;29;20757;-82
2023/03/21 03:21:59;;;;;;;39.87;23.00;;;8.00;99.90;;;;;;4787405;28;20290;-79
2023/03/21 03:52:25;;;;;;;35.67;20.97;;;8.00;99.90;;;;;;4754489;28;20608;-82
2023/03/21 04:18:12;;;;;;;36.73;20.33;;;7.90;99.90;;;;;;4731954;29;20223;-81
2023/03/21 05:09:05;;;;;;;32.80;19.27;;;7.90;99.90;;;;;;4746051;29;20253;-81
2023/03/21 05:38:53;;;;;;;22.10;14.60;;;8.10;99.90;;;;;;4705569;29;20547;-81
2023/03/21 06:40:24;;;;;;;18.10;11.47;;;8.20;99.90;;;;;;4707285;29;20257;-80
2023/03/21 06:44:44;;;;;;;18.83;11.97;;;8.30;99.90;;;;;;4598098;29;20619;-82
2023/03/21 07:10:34;;;;;;;14.80;9.73;;;8.50;99.90;;;;;;4708043;29;20295;-82
2023/03/21 07:40:58;;;;;;;10.77;7.47;;;8.90;99.90;;;;;;4852313;28;20571;-80
2023/03/21 08:01:24;;;;;;;7.43;5.90;;;9.30;99.90;;;;;;4791908;28;20237;-82
2023/03/21 08:21:49;;;;;;;10.97;6.90;;;9.40;99.90;;;;;;4763435;28;21317;-82
2023/03/21 08:46:46;;;;;;;9.23;7.67;;;9.30;99.90;;;;;;4673044;29;20851;-81
2023/03/21 09:12:22;;;;;;;8.37;6.77;;;10.80;95.70;;;;;;4676332;29;20206;-82
2023/03/21 09:32:39;;;;;;;7.37;6.20;;;10.00;99.90;;;;;;4722157;29;20213;-82
2023/03/21 09:58:04;;;;;;;6.17;4.83;;;9.80;99.90;;;;;;4723826;28;20316;-81
2023/03/21 10:28:28;;;;;;;10.37;7.17;;;10.00;99.90;;;;;;4787759;28;20219;-82
2023/03/21 10:58:52;;;;;;;4.83;3.57;;;9.30;99.90;;;;;;4666101;29;20216;-82
2023/03/21 11:28:51;;;;;;;3.17;2.87;;;11.20;95.10;;;;;;4525912;30;20838;-81
2023/03/21 12:50:18;;;;;;;5.73;5.00;;;11.40;91.20;;;;;;4780072;29;20486;-80
2023/03/21 13:15:52;;;;;;;6.03;4.57;;;12.30;87.60;;;;;;4636982;29;20285;-83
2023/03/21 13:55:58;;;;;;;6.40;5.70;;;11.80;91.00;;;;;;4735777;29;21260;-81
2023/03/21 15:07:29;;;;;;;6.50;5.70;;;10.90;92.10;;;;;;4752449;29;20694;-78
2023/03/21 15:27:44;;;;;;;6.83;5.17;;;10.60;91.20;;;;;;4826808;28;20200;-81
2023/03/21 15:53:08;;;;;;;5.27;4.73;;;10.60;88.50;;;;;;4783284;29;20636;-82
2023/03/21 16:23:15;;;;;;;6.73;5.37;;;10.20;87.70;;;;;;4826117;28;20687;-80
2023/03/21 16:53:58;;;;;;;10.00;5.83;;;9.00;93.20;;;;;;4748030;29;20247;-81
2023/03/21 17:29:25;;;;;;;9.17;6.20;;;6.60;99.90;;;;;;4927658;28;20229;-80
2023/03/21 17:59:29;;;;;;;11.23;7.07;;;5.60;99.90;;;;;;4804351;28;20491;-82
2023/03/21 18:25:19;;;;;;;15.10;8.57;;;4.70;99.90;;;;;;4837465;29;20320;-82
2023/03/21 18:55:04;;;;;;;15.00;9.00;;;4.10;99.90;;;;;;4806927;29;20222;-81
2023/03/21 19:15:35;;;;;;;19.40;10.10;;;4.00;99.90;;;;;;4779097;29;20512;-81
2023/03/21 19:41:02;;;;;;;21.20;12.27;;;3.60;99.90;;;;;;4737284;29;20452;-81
2023/03/21 20:11:05;;;;;;;24.27;13.77;;;2.90;99.90;;;;;;4721766;29;20221;-81
2023/03/21 20:42:12;;;;;;;24.23;14.97;;;3.20;99.90;;;;;;4860713;28;20309;-81
2023/03/21 21:02:30;;;;;;;25.90;16.33;;;2.60;99.90;;;;;;4788605;29;20238;-82
2023/03/21 21:52:51;;;;;;;50.93;30.43;;;2.10;99.90;;;;;;4591569;29;20520;-81
2023/03/21 22:23:28;;;;;;;56.07;32.43;;;1.60;99.90;;;;;;4762426;29;20240;-81
2023/03/21 23:04:11;;;;;;;56.27;34.17;;;1.60;99.90;;;;;;4837847;28;20210;-82
2023/03/21 23:24:31;;;;;;;52.13;33.53;;;1.30;99.90;;;;;;4790880;29;20269;-82
2023/03/21 23:49:51;;;;;;;65.50;38.40;;;0.90;99.90;;;;;;4679193;29;20216;-79
2023/03/21 23:54:11;;;;;;;60.77;37.63;;;1.00;99.90;;;;;;4607116;29;20518;-81
